< Typhoon 201828 2018 Season Typhoon 201901 >
Typhoon 201829 (USAGI)
General InformationTrack Information on Google MapsDetailed Wind InformationForecast History on Google MapsAccess Analytics MapList of All Images || NewsDisaster Info.WeblogTrackbackTyphoon FrontTwiphoonTyphoon Now!Typhoon ImaginationJMA Disaster Info. XMLResourceGoogle EarthGE AnimationAtom FeedGeoJSON
Detalied Best Track (Time Zone = UTC)
Year Month Day Hour Lat. Long. Pressure (hPa) Wind (kt) Class Image Chart
2018 11 13 00 9.2 156.7 1006 0 2 Image Chart
2018 11 13 06 8.7 155.8 1004 0 2 Image Chart
2018 11 13 12 8.2 155.0 1006 0 2 Image Chart
2018 11 13 18 7.9 154.0 1004 0 2 Image Chart
2018 11 14 00 7.6 153.0 1006 0 2 Image Chart
2018 11 14 06 7.4 152.1 1004 0 2 Image Chart
2018 11 14 12 7.6 151.2 1006 0 2 Image Chart
2018 11 14 18 8.1 150.3 1004 0 2 Image Chart
2018 11 15 00 8.8 149.4 1006 0 2 Image Chart
2018 11 15 06 9.0 148.5 1004 0 2 Image Chart
2018 11 15 12 9.0 147.6 1006 0 2 Image Chart
2018 11 15 18 9.0 146.7 1004 0 2 Image Chart
2018 11 16 00 9.0 145.8 1006 0 2 Image Chart
2018 11 16 06 8.7 144.7 1004 0 2 Image Chart
2018 11 16 12 8.4 143.4 1006 0 2 Image Chart
2018 11 16 18 7.9 142.2 1004 0 2 Image Chart
2018 11 17 00 7.5 140.9 1004 0 2 Image Chart
2018 11 17 06 7.3 139.5 1004 0 2 Image Chart
2018 11 17 12 7.0 137.9 1004 0 2 Image Chart
2018 11 17 18 6.8 136.8 1004 0 2 Image Chart
2018 11 18 00 6.6 135.5 1004 0 2 Image Chart
2018 11 18 06 6.4 134.4 1002 0 2 Image Chart
2018 11 18 12 6.7 133.6 1004 0 2 Image Chart
2018 11 18 18 7.1 133.0 1002 0 2 Image Chart
2018 11 19 00 7.9 132.1 1004 0 2 Image Chart
2018 11 19 06 8.7 131.2 1002 0 2 Image Chart
2018 11 19 12 9.2 130.4 1004 0 2 Image Chart
2018 11 19 18 9.8 129.5 1002 0 2 Image Chart
2018 11 20 00 10.1 128.8 1004 0 2 Image Chart
2018 11 20 06 10.6 127.7 1002 0 2 Image Chart
2018 11 20 12 11.0 126.8 1004 0 2 Image Chart
2018 11 20 18 11.4 125.4 1004 0 2 Image Chart
2018 11 21 00 11.0 123.5 1006 0 2 Image Chart
2018 11 21 06 10.7 121.6 1004 0 2 Image Chart
2018 11 21 12 10.5 120.1 1006 0 2 Image Chart
2018 11 21 18 10.8 118.4 1006 0 2 Image Chart
2018 11 22 00 11.3 117.0 1004 35 3 Image Chart
2018 11 22 06 11.6 115.6 1004 35 3 Image Chart
2018 11 22 12 11.2 114.3 1004 35 3 Image Chart
2018 11 22 18 10.9 113.5 1004 35 3 Image Chart
2018 11 23 00 10.7 112.6 1000 45 3 Image Chart
2018 11 23 06 10.6 111.6 996 50 4 Image Chart
2018 11 23 12 10.2 110.9 996 50 4 Image Chart
2018 11 23 18 9.7 110.1 996 50 4 Image Chart
2018 11 24 00 9.7 109.5 990 60 4 Image Chart
2018 11 24 06 9.7 108.7 990 60 4 Image Chart
2018 11 24 12 9.7 108.3 992 55 4 Image Chart
2018 11 24 18 9.7 107.7 992 55 4 Image Chart
2018 11 25 00 9.9 107.4 998 45 3 Image Chart
2018 11 25 06 10.1 107.0 1000 40 3 Image Chart
2018 11 25 12 10.7 107.0 1002 35 3 Image Chart
2018 11 25 18 11.3 106.6 1004 35 3 Image Chart
2018 11 26 00 11.4 105.9 1008 0 2 Image Chart
2018 11 26 06 11.5 105.4 1008 0 2 Image Chart
2018 11 26 12 11.7 104.9 1010 0 2 Image Chart
2018 11 26 18 12.0 104.0 1010 0 2 Image Chart
Japan Meteorological Agency Best Track Data | Correction Date : 2019-01-11
< Typhoon 201828 2018 Season Typhoon 201901 >

Help